Main page
METAR-TAF:

METAR-TAF

Airports :

Cap Skirring Airport

Cap Skirring, Senegal

latitude: 12-24N, longitude: 016-45W, elevation: 16 m

Current weather observation

The report was made 2 hours and 20 minutes ago, at 18:00 UTC
Wind 2 kt from variable directions
Temperature 30°C
Humidity 79%
Pressure 1009 hPa
Visibility 10 km or more
Few clouds at a height of 1500 ft
Few clouds at a height of 3000 ft, Cumulonimbus.
thunderstorm

METAR: GOGS 201800Z VRB02KT 9999 TS FEW015 FEW030CB 30/26 Q1009

Time: 20:20 (20:20 UTC)

Forecast

The report was made 2 hours and 50 minutes ago, at 17:30 UTC
Forecast valid from 20 at 18 UTC to 21 at 18 UTC
Wind 6 kt from the West/Southwest
Visibility: 8000 m
Broken clouds at a height of 1200 ft
Few clouds at a height of 3000 ft, Cumulonimbus.
thunderstorm
Becoming
from 20 at 22 UTC to 20 at 24 UTC
Scattered clouds at a height of 1300 ft

TAF: GOGS 201730Z 2018/2118 24006KT 8000 TS BKN012 FEW030CB BECMG 2022/2024 NSW SCT013

Weather observations and forecasts of more than 4000 airports (METAR and TAF reports).

The available stations are represented by yellow and red dots on the map.

Hover mouse over dot to see the name of the station.

Then click to see weather observations and forecasts.

To change the map : click on the green buttons with a black cross to zoom in, on the green button with a dash to zoom out, or on the green arrows for adjacent maps.


METAR-TAF: